Blue Star — WDJ5868 — position and weather

sailwx.info

Track history (hours):
 
Tides and Currents Weather Stations Pressure Air Temp Water Temp Dewpoint Dewpoint Depression Visibility Wind Speed Wind Dir Waves Ship Positions

Blue Star

Owner: Blue Star Marine, LAKE CHARLES, LA. More information available from US FCC via Universal Licensing System and Coast Guard Vessel Documentation Center.

Last reported at 2017-Oct-09 16:10 UTC. Time now 2017-Oct-20 16:11 UTC.
Position N 30°12' W 093°14'.
Warning: this ship's position is 11 days out of date.

Length 12 m; draft 1.8 m.

Type: Ship. MMSI: 367792040.

Date/timePositionNaut miles runAvg speedWind from/ knotsBaromVisibWave heightAir tempDewpointWater temp
2017-Oct-09 16:10N 30°12' W 093°14'1 3.7
2017-Oct-09 16:01N 30°13' W 093°15'2 4.8
2017-Oct-09 15:31N 30°12' W 093°18'3 0.4
2017-Oct-09 08:15N 30°12' W 093°14'1 2.9
2017-Oct-09 08:00N 30°13' W 093°15'3 6.3
2017-Oct-09 07:30N 30°11' W 093°18'4 6.9
2017-Oct-09 06:59N 30°12' W 093°14'  
2017-Oct-03 00:35N 30°12' W 093°14'0 1.6
2017-Oct-03 00:30N 30°12' W 093°14'1 3.0
2017-Oct-03 00:00N 30°13' W 093°16'2 0.5
2017-Oct-02 20:41N 30°12' W 093°14'1 2.9
2017-Oct-02 20:30N 30°12' W 093°15'1 1.0
2017-Oct-02 20:00N 30°12' W 093°14'  
Track history (hours):
 
Tides and Currents Weather Stations Pressure Air Temp Water Temp Dewpoint Dewpoint Depression Visibility Wind Speed Wind Dir Waves Ship Positions

Blue Star

Owner: Blue Star Marine, LAKE CHARLES, LA. More information available from US FCC via Universal Licensing System and Coast Guard Vessel Documentation Center.

Last reported at 2017-Oct-09 16:10 UTC. Time now 2017-Oct-20 16:11 UTC.
Position N 30°12' W 093°14'.
Warning: this ship's position is 11 days out of date.

Length 12 m; draft 1.8 m.

Type: Ship. MMSI: 367792040.

Date/timePositionNaut miles runAvg speedWind from/ knotsBaromVisibWave heightAir tempDewpointWater temp
2017-Oct-09 16:10N 30°12' W 093°14'1 3.7
2017-Oct-09 16:01N 30°13' W 093°15'2 4.8
2017-Oct-09 15:31N 30°12' W 093°18'3 0.4
2017-Oct-09 08:15N 30°12' W 093°14'1 2.9
2017-Oct-09 08:00N 30°13' W 093°15'3 6.3
2017-Oct-09 07:30N 30°11' W 093°18'4 6.9
2017-Oct-09 06:59N 30°12' W 093°14'  
2017-Oct-03 00:35N 30°12' W 093°14'0 1.6
2017-Oct-03 00:30N 30°12' W 093°14'1 3.0
2017-Oct-03 00:00N 30°13' W 093°16'2 0.5
2017-Oct-02 20:41N 30°12' W 093°14'1 2.9
2017-Oct-02 20:30N 30°12' W 093°15'1 1.0
2017-Oct-02 20:00N 30°12' W 093°14'  

Dump ship's entire track history